createdAt,value
2022-10-04T00:00:26.501Z,11.38
2022-10-04T00:03:27.591Z,11.34
2022-10-04T00:06:02.228Z,11.32
2022-10-04T00:08:43.534Z,11.30
2022-10-04T00:11:21.429Z,11.32
2022-10-04T00:13:58.548Z,11.33
2022-10-04T00:16:34.074Z,11.33
2022-10-04T00:19:38.403Z,11.34
2022-10-04T00:22:27.568Z,11.36
2022-10-04T00:25:20.541Z,11.33
2022-10-04T00:28:29.273Z,11.31
2022-10-04T00:31:16.230Z,11.31
2022-10-04T00:33:50.281Z,11.35
2022-10-04T00:36:49.418Z,11.35
2022-10-04T00:39:40.363Z,11.38
2022-10-04T00:42:51.282Z,11.41
2022-10-04T00:45:29.612Z,11.43
2022-10-04T00:48:13.154Z,11.44
2022-10-04T00:50:51.416Z,11.43
2022-10-04T00:53:38.812Z,11.41
2022-10-04T00:56:15.392Z,11.42
2022-10-04T00:59:05.061Z,11.47
2022-10-04T01:01:39.231Z,11.47
2022-10-04T01:04:25.585Z,11.47
2022-10-04T01:06:59.034Z,11.49
2022-10-04T01:09:34.850Z,11.51
2022-10-04T01:12:12.058Z,11.51
2022-10-04T01:14:52.974Z,11.51
2022-10-04T01:17:25.124Z,11.49
2022-10-04T01:19:58.067Z,11.48
2022-10-04T01:22:39.161Z,11.51
2022-10-04T01:25:12.436Z,11.51
2022-10-04T01:27:47.296Z,11.51
2022-10-04T01:30:18.403Z,11.52
2022-10-04T01:32:52.031Z,11.51
2022-10-04T01:35:24.233Z,11.47
2022-10-04T01:37:56.441Z,11.44
2022-10-04T01:40:28.881Z,11.39
2022-10-04T01:43:06.398Z,11.35
2022-10-04T01:45:44.417Z,11.33
2022-10-04T01:48:22.328Z,11.34
2022-10-04T01:51:01.041Z,11.32
2022-10-04T01:53:37.014Z,11.32
2022-10-04T01:56:15.331Z,11.32
2022-10-04T01:58:50.601Z,11.31
2022-10-04T02:01:31.338Z,11.32
2022-10-04T02:04:09.366Z,11.32
2022-10-04T02:06:44.400Z,11.30
2022-10-04T02:09:21.002Z,11.29
2022-10-04T02:11:54.432Z,11.27
2022-10-04T02:14:31.935Z,11.30
2022-10-04T02:17:09.286Z,11.30
2022-10-04T02:19:45.196Z,11.29
2022-10-04T02:22:18.761Z,11.28
2022-10-04T02:24:51.884Z,11.27
2022-10-04T02:27:30.159Z,11.27
2022-10-04T02:30:09.340Z,11.24
2022-10-04T02:33:01.410Z,11.22
2022-10-04T02:35:36.515Z,11.19
2022-10-04T02:38:15.191Z,11.20
2022-10-04T02:40:57.270Z,11.18
2022-10-04T02:43:35.837Z,11.18
2022-10-04T02:46:13.546Z,11.18
2022-10-04T02:48:49.050Z,11.17
2022-10-04T02:51:26.974Z,11.15
2022-10-04T02:54:08.564Z,11.12
2022-10-04T02:56:41.158Z,11.09
2022-10-04T02:59:19.184Z,11.06
2022-10-04T03:01:56.479Z,11.07
2022-10-04T03:04:32.427Z,11.07
2022-10-04T03:07:07.501Z,11.06
2022-10-04T03:09:41.536Z,11.04
2022-10-04T03:12:16.245Z,11.03
2022-10-04T03:14:46.679Z,10.99
2022-10-04T03:17:19.377Z,10.96
2022-10-04T03:19:52.637Z,10.94
2022-10-04T03:22:25.482Z,10.96
2022-10-04T03:24:59.271Z,10.98
2022-10-04T03:27:34.064Z,10.98
2022-10-04T03:30:05.196Z,10.99
2022-10-04T03:32:38.826Z,11.01
2022-10-04T03:35:29.633Z,11.04
2022-10-04T03:38:03.248Z,11.05
2022-10-04T03:40:37.902Z,11.04
2022-10-04T03:43:13.606Z,11.05
2022-10-04T03:45:46.039Z,11.06
2022-10-04T03:48:29.981Z,11.11
2022-10-04T03:51:03.628Z,11.13
2022-10-04T03:53:43.370Z,11.15
2022-10-04T03:56:20.112Z,11.15
2022-10-04T03:58:53.370Z,11.16
2022-10-04T04:01:40.612Z,11.16
2022-10-04T04:04:22.428Z,11.16
2022-10-04T04:07:04.232Z,11.13
2022-10-04T04:09:44.042Z,11.10
2022-10-04T04:12:22.395Z,11.09
2022-10-04T04:14:55.536Z,11.12
2022-10-04T04:17:39.113Z,11.09
2022-10-04T04:20:21.190Z,11.09
2022-10-04T04:23:06.735Z,11.09
2022-10-04T04:25:42.155Z,11.08
2022-10-04T04:28:26.505Z,11.08
2022-10-04T04:31:04.286Z,11.06
2022-10-04T04:33:46.302Z,11.05
2022-10-04T04:36:19.224Z,11.04
2022-10-04T04:39:09.031Z,11.06
2022-10-04T04:41:43.811Z,11.07
2022-10-04T04:44:20.980Z,11.08
2022-10-04T04:46:53.761Z,11.10
2022-10-04T04:49:26.066Z,11.14
2022-10-04T04:51:59.134Z,11.18
2022-10-04T04:54:31.302Z,11.21
2022-10-04T04:57:04.029Z,11.24
2022-10-04T04:59:37.204Z,11.24
2022-10-04T05:02:36.445Z,11.23
2022-10-04T05:05:23.606Z,11.24
2022-10-04T05:08:14.892Z,11.28
2022-10-04T05:10:52.058Z,11.29
2022-10-04T05:13:27.264Z,11.30
2022-10-04T05:16:02.334Z,11.32
2022-10-04T05:18:35.527Z,11.35
2022-10-04T05:21:13.931Z,11.38
2022-10-04T05:23:45.994Z,11.35
2022-10-04T05:26:26.059Z,11.32
2022-10-04T05:29:01.499Z,11.31
2022-10-04T05:31:45.848Z,11.30
2022-10-04T05:34:27.248Z,11.36
2022-10-04T05:37:25.443Z,11.33
2022-10-04T05:40:07.421Z,11.32
2022-10-04T05:42:45.638Z,11.33
2022-10-04T05:45:25.206Z,11.34
2022-10-04T05:47:59.206Z,11.34
2022-10-04T05:50:36.245Z,11.36
2022-10-04T05:53:28.484Z,11.34
2022-10-04T05:56:13.811Z,11.33
2022-10-04T05:59:00.376Z,11.32
2022-10-04T06:01:43.265Z,11.37
2022-10-04T06:04:35.788Z,11.38
2022-10-04T06:07:21.671Z,11.38
2022-10-04T06:10:26.222Z,11.41
2022-10-04T06:13:05.356Z,11.42
2022-10-04T06:15:54.353Z,11.44
2022-10-04T06:18:44.318Z,11.45
2022-10-04T06:21:38.737Z,11.44
2022-10-04T06:24:17.910Z,11.42
2022-10-04T06:26:55.504Z,11.43
2022-10-04T06:29:33.787Z,11.51
2022-10-04T06:32:29.447Z,11.56
2022-10-04T06:35:18.645Z,11.59
2022-10-04T06:38:13.085Z,11.63
2022-10-04T06:41:23.706Z,11.67
2022-10-04T06:44:13.904Z,11.78
2022-10-04T06:46:50.879Z,11.85
2022-10-04T06:49:35.529Z,11.90
2022-10-04T06:52:22.840Z,11.95
2022-10-04T06:55:21.082Z,12.06
2022-10-04T06:58:19.584Z,12.11
2022-10-04T07:00:58.624Z,12.12
2022-10-04T07:03:38.476Z,12.11
2022-10-04T07:06:11.875Z,12.08
2022-10-04T07:08:49.277Z,12.07
2022-10-04T07:11:26.015Z,12.06
2022-10-04T07:14:05.901Z,12.05
2022-10-04T07:16:48.588Z,12.14
2022-10-04T07:19:41.515Z,12.19
2022-10-04T07:22:23.662Z,12.31
2022-10-04T07:25:07.658Z,12.46
2022-10-04T07:28:11.140Z,12.58
2022-10-04T07:30:48.631Z,12.65
2022-10-04T07:33:25.289Z,12.75
2022-10-04T07:36:07.604Z,12.80
2022-10-04T07:38:47.679Z,12.77
2022-10-04T07:41:27.886Z,12.74
2022-10-04T07:44:04.745Z,12.73
2022-10-04T07:46:56.737Z,12.70
2022-10-04T07:49:28.922Z,12.67
2022-10-04T07:52:29.884Z,12.64
2022-10-04T07:55:15.102Z,12.58
2022-10-04T07:57:51.582Z,12.56
2022-10-04T08:00:29.599Z,12.52
2022-10-04T08:03:21.631Z,12.49
2022-10-04T08:06:02.031Z,12.49
2022-10-04T08:08:46.976Z,12.48
2022-10-04T08:11:30.276Z,12.49
2022-10-04T08:14:11.249Z,12.49
2022-10-04T08:16:55.903Z,12.50
2022-10-04T08:19:42.083Z,12.54
2022-10-04T08:22:26.576Z,12.61
2022-10-04T08:25:06.596Z,12.66
2022-10-04T08:28:14.184Z,12.73
2022-10-04T08:31:09.408Z,12.76
2022-10-04T08:33:55.414Z,12.78
2022-10-04T08:36:43.780Z,12.80
2022-10-04T08:39:35.305Z,12.76
2022-10-04T08:42:52.836Z,12.76
2022-10-04T08:46:04.689Z,12.75
2022-10-04T08:49:09.394Z,12.77
2022-10-04T08:52:03.306Z,12.83
2022-10-04T08:55:05.634Z,12.92
2022-10-04T08:57:57.416Z,12.96
2022-10-04T09:00:46.989Z,13.00
2022-10-04T09:03:44.419Z,13.09
2022-10-04T09:06:36.478Z,13.18
2022-10-04T09:09:35.989Z,13.21
2022-10-04T09:12:34.884Z,13.26
2022-10-04T09:15:27.354Z,13.39
2022-10-04T09:18:15.968Z,13.51
2022-10-04T09:21:02.199Z,13.63
2022-10-04T09:23:59.024Z,13.74
2022-10-04T09:26:44.990Z,13.80
2022-10-04T09:29:32.807Z,13.92
2022-10-04T09:32:34.915Z,14.07
2022-10-04T09:35:32.165Z,14.18
2022-10-04T09:38:21.198Z,14.27
2022-10-04T09:41:15.036Z,14.44
2022-10-04T09:44:25.335Z,14.58
2022-10-04T09:47:14.376Z,14.78
2022-10-04T09:50:35.801Z,15.01
2022-10-04T09:53:21.752Z,15.27
2022-10-04T09:56:11.412Z,15.47
2022-10-04T09:59:22.239Z,15.62
2022-10-04T10:02:28.358Z,15.60
2022-10-04T10:05:24.257Z,15.64
2022-10-04T10:08:09.941Z,15.61
2022-10-04T10:11:09.622Z,15.49
2022-10-04T10:14:18.475Z,15.36
2022-10-04T10:17:04.722Z,15.28
2022-10-04T10:20:04.731Z,15.31
2022-10-04T10:23:07.224Z,15.35
2022-10-04T10:25:53.493Z,15.40
2022-10-04T10:28:47.932Z,15.36
2022-10-04T10:31:48.362Z,15.28
2022-10-04T10:34:52.413Z,15.16
2022-10-04T10:37:41.960Z,15.00
2022-10-04T10:40:39.339Z,14.83
2022-10-04T10:43:38.550Z,14.70
2022-10-04T10:46:23.662Z,14.56
2022-10-04T10:49:02.878Z,14.49
2022-10-04T10:51:59.719Z,14.45
2022-10-04T10:54:59.882Z,14.49
2022-10-04T10:57:53.756Z,14.68
2022-10-04T11:00:33.616Z,14.73
2022-10-04T11:03:59.952Z,14.69
2022-10-04T11:07:00.049Z,14.69
2022-10-04T11:09:45.671Z,14.83
2022-10-04T11:12:51.294Z,15.02
2022-10-04T11:16:01.938Z,15.17
2022-10-04T11:19:07.415Z,15.18
2022-10-04T11:22:17.382Z,15.24
2022-10-04T11:25:36.197Z,15.24
2022-10-04T11:28:17.163Z,15.25
2022-10-04T11:31:26.193Z,15.26
2022-10-04T11:34:19.438Z,15.25
2022-10-04T11:37:05.606Z,15.22
2022-10-04T11:40:09.970Z,15.18
2022-10-04T11:43:01.836Z,15.13
2022-10-04T11:46:08.541Z,15.08
2022-10-04T11:49:00.210Z,15.07
2022-10-04T11:52:02.474Z,15.04
2022-10-04T11:55:23.747Z,14.95
2022-10-04T11:58:00.380Z,14.89
2022-10-04T12:01:00.104Z,14.88
2022-10-04T12:03:59.035Z,14.84
2022-10-04T12:06:45.959Z,14.87
2022-10-04T12:09:28.151Z,15.00
2022-10-04T12:12:40.272Z,15.09
2022-10-04T12:15:38.637Z,15.17
2022-10-04T12:18:46.285Z,15.21
2022-10-04T12:21:31.060Z,15.19
2022-10-04T12:24:15.959Z,15.13
2022-10-04T12:27:17.725Z,15.07
2022-10-04T12:30:21.771Z,15.00
2022-10-04T12:33:05.359Z,15.07
2022-10-04T12:35:50.144Z,15.32
2022-10-04T12:38:43.333Z,15.60
2022-10-04T12:41:31.982Z,15.90
2022-10-04T12:44:15.512Z,16.10
2022-10-04T12:46:58.773Z,16.13
2022-10-04T12:49:45.755Z,16.09
2022-10-04T12:52:24.036Z,15.98
2022-10-04T12:55:03.885Z,15.88
2022-10-04T12:57:49.754Z,15.80
2022-10-04T13:00:24.708Z,15.69
2022-10-04T13:03:21.826Z,15.58
2022-10-04T13:06:05.205Z,15.51
2022-10-04T13:09:02.770Z,15.40
2022-10-04T13:12:09.297Z,15.30
2022-10-04T13:14:56.175Z,15.23
2022-10-04T13:17:44.862Z,15.19
2022-10-04T13:20:45.837Z,15.16
2022-10-04T13:23:31.482Z,15.11
2022-10-04T13:26:16.903Z,15.03
2022-10-04T13:29:03.039Z,14.96
2022-10-04T13:31:42.802Z,14.90
2022-10-04T13:34:26.790Z,14.81
2022-10-04T13:37:11.038Z,14.78
2022-10-04T13:40:05.044Z,14.78
2022-10-04T13:42:55.641Z,14.81
2022-10-04T13:45:41.741Z,14.86
2022-10-04T13:48:30.761Z,14.90
2022-10-04T13:51:16.301Z,14.94
2022-10-04T13:54:17.417Z,15.02
2022-10-04T13:57:13.331Z,15.12
2022-10-04T13:59:49.346Z,15.21
2022-10-04T14:03:02.993Z,15.26
2022-10-04T14:06:12.373Z,15.33
2022-10-04T14:09:11.690Z,15.35
2022-10-04T14:12:13.204Z,15.36
2022-10-04T14:15:12.214Z,15.35
2022-10-04T14:18:04.713Z,15.34
2022-10-04T14:21:19.913Z,15.34
2022-10-04T14:24:07.931Z,15.35
2022-10-04T14:27:17.891Z,15.34
2022-10-04T14:30:21.027Z,15.33
2022-10-04T14:33:26.163Z,15.30
2022-10-04T14:36:21.544Z,15.26
2022-10-04T14:39:14.008Z,15.22
2022-10-04T14:42:08.856Z,15.17
2022-10-04T14:45:05.529Z,15.11
2022-10-04T14:48:18.145Z,15.02
2022-10-04T14:51:04.550Z,14.94
2022-10-04T14:53:43.273Z,14.88
2022-10-04T14:56:40.195Z,14.82
2022-10-04T14:59:34.098Z,14.76
2022-10-04T15:02:24.133Z,14.70
2022-10-04T15:05:28.697Z,14.63
2022-10-04T15:08:30.157Z,14.56
2022-10-04T15:11:06.955Z,14.49
2022-10-04T15:13:50.061Z,14.43
2022-10-04T15:16:34.975Z,14.39
2022-10-04T15:19:12.796Z,14.32
2022-10-04T15:22:01.869Z,14.28
2022-10-04T15:24:47.971Z,14.22
2022-10-04T15:27:51.714Z,14.16
2022-10-04T15:30:30.991Z,14.10
2022-10-04T15:33:30.703Z,14.04
2022-10-04T15:36:28.644Z,13.98
2022-10-04T15:39:05.207Z,13.93
2022-10-04T15:41:50.605Z,13.89
2022-10-04T15:44:44.434Z,13.91
2022-10-04T15:47:26.457Z,13.89
2022-10-04T15:50:11.099Z,13.87
2022-10-04T15:53:20.173Z,13.83
2022-10-04T15:56:07.935Z,13.77
2022-10-04T15:58:56.616Z,13.72
2022-10-04T16:01:47.579Z,13.66
2022-10-04T16:04:48.188Z,13.58
2022-10-04T16:07:42.844Z,13.48
2022-10-04T16:10:31.266Z,13.41
2022-10-04T16:13:41.505Z,13.32
2022-10-04T16:20:21.336Z,13.19
2022-10-04T16:23:24.492Z,13.14
2022-10-04T16:25:57.895Z,13.08
2022-10-04T16:28:51.676Z,13.02
2022-10-04T16:31:41.324Z,12.97
2022-10-04T16:34:26.033Z,12.90
2022-10-04T16:37:05.294Z,12.83
2022-10-04T16:39:58.353Z,12.76
2022-10-04T16:42:40.777Z,12.68
2022-10-04T16:45:40.551Z,12.62
2022-10-04T16:48:28.736Z,12.59
2022-10-04T16:51:22.348Z,12.53
2022-10-04T16:54:04.799Z,12.50
2022-10-04T16:57:28.800Z,12.45
2022-10-04T17:00:22.005Z,12.40
2022-10-04T17:03:07.844Z,12.35
2022-10-04T17:05:56.499Z,12.31
2022-10-04T17:08:47.785Z,12.24
2022-10-04T17:11:44.108Z,12.22
2022-10-04T17:14:48.248Z,12.24
2022-10-04T17:17:31.835Z,12.23
2022-10-04T17:20:11.491Z,12.21
2022-10-04T17:22:55.264Z,12.21
2022-10-04T17:25:34.531Z,12.22
2022-10-04T17:28:26.319Z,12.23
2022-10-04T17:31:12.674Z,12.25
2022-10-04T17:33:53.861Z,12.27
2022-10-04T17:36:49.642Z,12.28
2022-10-04T17:39:44.549Z,12.28
2022-10-04T17:42:27.412Z,12.28
2022-10-04T17:45:15.496Z,12.26
2022-10-04T17:48:15.376Z,12.22
2022-10-04T17:51:13.730Z,12.17
2022-10-04T17:54:10.107Z,12.17
2022-10-04T17:56:47.274Z,12.18
2022-10-04T17:59:30.004Z,12.20
2022-10-04T18:02:11.853Z,12.21
2022-10-04T18:04:54.637Z,12.24
2022-10-04T18:07:28.846Z,12.28
2022-10-04T18:10:11.686Z,12.29
2022-10-04T18:13:05.494Z,12.31
2022-10-04T18:15:44.683Z,12.32
2022-10-04T18:18:24.637Z,12.32
2022-10-04T18:21:22.001Z,12.33
2022-10-04T18:24:17.768Z,12.33
2022-10-04T18:27:06.267Z,12.33
2022-10-04T18:29:48.436Z,12.32
2022-10-04T18:32:38.643Z,12.32
2022-10-04T18:35:31.727Z,12.31
2022-10-04T18:38:27.032Z,12.30
2022-10-04T18:41:06.610Z,12.29
2022-10-04T18:43:55.612Z,12.26
2022-10-04T18:46:52.415Z,12.25
2022-10-04T18:49:32.795Z,12.23
2022-10-04T18:52:27.765Z,12.21
2022-10-04T18:55:20.982Z,12.19
2022-10-04T18:58:37.485Z,12.18
2022-10-04T19:01:41.430Z,12.16
2022-10-04T19:04:23.863Z,12.12
2022-10-04T19:07:07.691Z,12.09
2022-10-04T19:10:01.746Z,12.06
2022-10-04T19:12:50.821Z,12.03
2022-10-04T19:15:35.119Z,11.98
2022-10-04T19:18:30.065Z,11.94
2022-10-04T19:21:10.699Z,11.90
2022-10-04T19:23:52.741Z,11.88
2022-10-04T19:26:43.658Z,11.85
2022-10-04T19:29:27.083Z,11.82
2022-10-04T19:32:05.314Z,11.81
2022-10-04T19:34:48.396Z,11.81
2022-10-04T19:37:27.049Z,11.78
2022-10-04T19:40:10.313Z,11.75
2022-10-04T19:42:53.263Z,11.71
2022-10-04T19:45:39.047Z,11.68
2022-10-04T19:48:24.230Z,11.66
2022-10-04T19:51:03.837Z,11.65
2022-10-04T19:53:42.662Z,11.65
2022-10-04T19:56:21.305Z,11.66
2022-10-04T19:59:03.966Z,11.65
2022-10-04T20:01:36.575Z,11.64
2022-10-04T20:04:32.741Z,11.64
2022-10-04T20:07:11.599Z,11.61
2022-10-04T20:10:08.739Z,11.57
2022-10-04T20:12:42.677Z,11.55
2022-10-04T20:15:27.473Z,11.54
2022-10-04T20:18:01.475Z,11.55
2022-10-04T20:21:09.687Z,11.55
2022-10-04T20:23:59.205Z,11.56
2022-10-04T20:26:54.516Z,11.56
2022-10-04T20:30:06.464Z,11.56
2022-10-04T20:32:59.455Z,11.56
2022-10-04T20:36:09.641Z,11.58
2022-10-04T20:39:03.029Z,11.58
2022-10-04T20:42:22.722Z,11.56
2022-10-04T20:45:22.411Z,11.57
2022-10-04T20:47:57.844Z,11.56
2022-10-04T20:50:39.041Z,11.55
2022-10-04T20:53:18.954Z,11.53
2022-10-04T20:55:54.102Z,11.51
2022-10-04T20:58:33.050Z,11.50
2022-10-04T21:01:40.062Z,11.51
2022-10-04T21:04:30.040Z,11.53
2022-10-04T21:07:06.694Z,11.54
2022-10-04T21:09:41.190Z,11.55
2022-10-04T21:12:30.646Z,11.53
2022-10-04T21:15:18.793Z,11.53
2022-10-04T21:18:04.924Z,11.54
2022-10-04T21:20:48.468Z,11.54
2022-10-04T21:23:31.478Z,11.51
2022-10-04T21:26:22.977Z,11.49
2022-10-04T21:28:58.134Z,11.48
2022-10-04T21:31:30.637Z,11.46
2022-10-04T21:34:02.972Z,11.45
2022-10-04T21:36:35.325Z,11.46
2022-10-04T21:39:07.689Z,11.49
2022-10-04T21:41:40.022Z,11.50
2022-10-04T21:44:12.548Z,11.51
2022-10-04T21:46:45.244Z,11.53
2022-10-04T21:49:17.645Z,11.54
2022-10-04T21:51:50.059Z,11.57
2022-10-04T21:54:22.740Z,11.59
2022-10-04T21:56:55.160Z,11.61
2022-10-04T21:59:27.560Z,11.64
2022-10-04T22:01:59.979Z,11.66
2022-10-04T22:19:24.526Z,11.52
2022-10-04T22:21:57.025Z,11.49
2022-10-04T22:24:29.426Z,11.46
2022-10-04T22:27:02.473Z,11.45
2022-10-04T22:29:36.869Z,11.44
2022-10-04T22:32:18.280Z,11.44
2022-10-04T22:34:51.483Z,11.43
2022-10-04T22:37:26.106Z,11.42
2022-10-04T22:39:58.575Z,11.40
2022-10-04T22:42:33.271Z,11.38
2022-10-04T22:45:07.506Z,11.37
2022-10-04T22:47:39.790Z,11.35
2022-10-04T22:50:26.428Z,11.33
2022-10-04T22:52:59.213Z,11.30
2022-10-04T22:55:31.627Z,11.28
2022-10-04T22:58:04.212Z,11.26
2022-10-04T23:00:36.487Z,11.25
2022-10-04T23:03:24.581Z,11.24
2022-10-04T23:05:56.876Z,11.23
2022-10-04T23:08:29.698Z,11.23
2022-10-04T23:11:02.689Z,11.24
2022-10-04T23:13:35.091Z,11.24
2022-10-04T23:16:15.447Z,11.25
2022-10-04T23:18:47.944Z,11.24
2022-10-04T23:21:26.026Z,11.23
2022-10-04T23:24:02.687Z,11.22
2022-10-04T23:26:40.056Z,11.23
2022-10-04T23:29:18.773Z,11.22
2022-10-04T23:31:51.682Z,11.21
2022-10-04T23:34:30.148Z,11.20
2022-10-04T23:37:03.130Z,11.19
2022-10-04T23:39:37.487Z,11.18
2022-10-04T23:42:18.449Z,11.18
2022-10-04T23:44:53.071Z,11.17
2022-10-04T23:47:28.649Z,11.17
2022-10-04T23:50:01.215Z,11.16
2022-10-04T23:52:38.404Z,11.14
2022-10-04T23:55:20.498Z,11.13
2022-10-04T23:57:53.135Z,11.14
